createdAt,value
2022-08-28T00:01:35.139Z,21.95
2022-08-28T00:06:39.995Z,22.17
2022-08-28T00:11:43.700Z,21.89
2022-08-28T00:16:47.827Z,21.70
2022-08-28T00:21:52.991Z,21.29
2022-08-28T00:27:13.726Z,22.17
2022-08-28T00:32:17.272Z,22.09
2022-08-28T00:37:24.669Z,22.37
2022-08-28T00:42:28.572Z,22.38
2022-08-28T00:47:32.006Z,22.29
2022-08-28T00:52:36.969Z,22.13
2022-08-28T00:57:43.490Z,22.08
2022-08-28T01:02:47.205Z,22.38
2022-08-28T01:07:53.452Z,22.32
2022-08-28T01:12:58.823Z,22.38
2022-08-28T01:18:08.227Z,22.42
2022-08-28T01:23:16.670Z,22.42
2022-08-28T01:28:21.610Z,22.38
2022-08-28T01:33:28.284Z,22.16
2022-08-28T01:38:31.843Z,21.91
2022-08-28T01:43:36.659Z,21.91
2022-08-28T01:48:43.190Z,21.85
2022-08-28T01:53:46.805Z,22.06
2022-08-28T01:58:52.394Z,22.05
2022-08-28T02:03:55.873Z,21.64
2022-08-28T02:09:00.391Z,20.88
2022-08-28T02:14:05.265Z,21.78
2022-08-28T02:19:08.702Z,21.84
2022-08-28T02:24:12.466Z,21.30
2022-08-28T02:29:18.570Z,22.05
2022-08-28T02:34:23.032Z,21.81
2022-08-28T02:39:26.533Z,21.73
2022-08-28T02:44:31.388Z,21.41
2022-08-28T02:49:36.294Z,21.43
2022-08-28T02:54:40.659Z,21.63
2022-08-28T02:59:45.513Z,21.45
2022-08-28T03:04:49.376Z,21.00
2022-08-28T03:09:54.776Z,21.71
2022-08-28T03:14:59.606Z,21.53
2022-08-28T03:20:03.367Z,21.80
2022-08-28T03:25:07.377Z,21.83
2022-08-28T03:30:12.985Z,21.28
2022-08-28T03:35:16.506Z,21.50
2022-08-28T03:40:21.552Z,21.43
2022-08-28T03:45:26.606Z,21.57
2022-08-28T03:50:30.213Z,21.46
2022-08-28T03:55:34.068Z,20.82
2022-08-28T04:00:41.801Z,21.20
2022-08-28T04:05:48.467Z,21.22
2022-08-28T04:10:52.184Z,21.28
2022-08-28T04:16:02.490Z,21.36
2022-08-28T04:21:12.142Z,21.43
2022-08-28T04:26:17.694Z,21.46
2022-08-28T04:31:32.077Z,21.18
2022-08-28T04:36:37.018Z,20.87
2022-08-28T04:41:40.460Z,20.99
2022-08-28T04:46:45.306Z,20.14
2022-08-28T04:51:52.068Z,20.65
2022-08-28T04:56:55.691Z,20.90
2022-08-28T05:02:00.535Z,21.16
2022-08-28T05:07:04.155Z,20.83
2022-08-28T05:12:07.837Z,21.33
2022-08-28T05:17:13.798Z,20.87
2022-08-28T05:22:17.232Z,21.10
2022-08-28T05:27:20.743Z,20.63
2022-08-28T05:32:25.569Z,19.81
2022-08-28T05:37:29.126Z,20.57
2022-08-28T05:42:37.089Z,20.35
2022-08-28T05:47:43.894Z,19.93
2022-08-28T05:52:47.414Z,21.03
2022-08-28T05:57:50.879Z,21.57
2022-08-28T06:02:55.757Z,21.79
2022-08-28T06:07:59.343Z,21.95
2022-08-28T06:13:02.745Z,20.71
2022-08-28T06:18:07.819Z,21.96
2022-08-28T06:23:12.033Z,22.15
2022-08-28T06:28:24.835Z,22.32
2022-08-28T06:33:29.870Z,21.61
2022-08-28T06:38:33.323Z,20.99
2022-08-28T06:43:37.295Z,21.59
2022-08-28T06:48:42.162Z,22.04
2022-08-28T06:53:46.770Z,22.66
2022-08-28T06:58:51.732Z,22.50
2022-08-28T07:03:59.326Z,20.70
2022-08-28T07:09:02.999Z,22.71
2022-08-28T07:14:07.186Z,22.28
2022-08-28T07:19:12.932Z,22.50
2022-08-28T07:24:17.376Z,22.42
2022-08-28T07:29:21.738Z,23.21
2022-08-28T07:34:27.124Z,22.95
2022-08-28T07:39:31.087Z,23.28
2022-08-28T07:44:54.795Z,22.83
2022-08-28T07:50:01.532Z,23.35
2022-08-28T07:55:08.681Z,21.96
2022-08-28T08:00:17.058Z,22.87
2022-08-28T08:05:21.917Z,24.20
2022-08-28T08:10:25.417Z,24.34
2022-08-28T08:15:35.621Z,23.98
2022-08-28T08:20:40.811Z,24.69
2022-08-28T08:26:33.656Z,23.81
2022-08-28T08:31:37.246Z,23.88
2022-08-28T08:36:45.796Z,24.60
2022-08-28T08:41:51.762Z,23.59
2022-08-28T08:47:01.543Z,23.12
2022-08-28T08:52:22.095Z,24.45
2022-08-28T08:57:25.690Z,24.68
2022-08-28T09:02:33.424Z,24.67
2022-08-28T09:07:41.121Z,23.50
2022-08-28T09:12:51.194Z,25.17
2022-08-28T09:17:56.490Z,24.49
2022-08-28T09:23:01.977Z,24.49
2022-08-28T09:28:08.114Z,26.02
2022-08-28T09:33:11.810Z,25.35
2022-08-28T09:38:21.134Z,26.42
2022-08-28T09:43:28.223Z,25.47
2022-08-28T09:48:34.610Z,26.02
2022-08-28T09:53:55.527Z,26.38
2022-08-28T09:59:01.842Z,23.92
2022-08-28T10:04:18.063Z,25.10
2022-08-28T10:09:29.299Z,26.82
2022-08-28T10:14:44.341Z,27.54
2022-08-28T10:19:55.205Z,26.06
2022-08-28T10:25:15.779Z,25.08
2022-08-28T10:30:22.970Z,26.35
2022-08-28T10:35:36.895Z,27.56
2022-08-28T10:40:51.912Z,26.89
2022-08-28T10:45:55.910Z,28.16
2022-08-28T10:51:01.971Z,25.38
2022-08-28T10:56:10.196Z,27.52
2022-08-28T11:01:16.072Z,26.84
2022-08-28T11:06:26.155Z,26.83
2022-08-28T11:11:44.745Z,28.28
2022-08-28T11:16:50.106Z,29.82
2022-08-28T11:21:56.411Z,28.77
2022-08-28T11:27:13.529Z,28.22
2022-08-28T11:32:29.833Z,29.22
2022-08-28T11:37:43.875Z,29.73
2022-08-28T11:42:50.076Z,29.58
2022-08-28T11:47:57.702Z,27.13
2022-08-28T11:53:28.166Z,28.10
2022-08-28T11:58:39.354Z,27.92
2022-08-28T12:03:45.895Z,28.52
2022-08-28T12:09:11.215Z,30.24
2022-08-28T12:15:07.770Z,29.03
2022-08-28T12:20:21.244Z,28.68
2022-08-28T12:25:30.854Z,29.83
2022-08-28T12:30:41.046Z,29.15
2022-08-28T12:35:50.391Z,28.31
2022-08-28T12:40:55.963Z,29.54
2022-08-28T12:46:02.063Z,30.21
2022-08-28T12:51:09.158Z,29.42
2022-08-28T12:56:14.392Z,29.14
2022-08-28T13:01:25.984Z,30.87
2022-08-28T13:06:33.989Z,30.15
2022-08-28T13:11:39.511Z,28.04
2022-08-28T13:16:46.579Z,28.36
2022-08-28T13:21:58.536Z,28.90
2022-08-28T13:27:07.291Z,29.31
2022-08-28T13:32:17.391Z,29.36
2022-08-28T13:37:42.948Z,30.89
2022-08-28T13:42:56.262Z,30.35
2022-08-28T13:47:59.811Z,30.38
2022-08-28T13:53:05.943Z,30.75
2022-08-28T13:58:09.512Z,29.24
2022-08-28T14:03:30.418Z,30.62
2022-08-28T14:09:01.911Z,30.23
2022-08-28T14:14:05.556Z,27.72
2022-08-28T14:19:09.551Z,28.23
2022-08-28T14:24:14.689Z,28.25
2022-08-28T14:29:19.662Z,29.02
2022-08-28T14:34:24.363Z,27.72
2022-08-28T14:39:32.226Z,29.35
2022-08-28T14:44:40.964Z,28.39
2022-08-28T14:49:44.514Z,29.62
2022-08-28T14:54:49.340Z,27.84
2022-08-28T14:59:53.044Z,27.08
2022-08-28T15:04:56.627Z,29.48
2022-08-28T15:10:03.683Z,27.17
2022-08-28T15:15:07.869Z,28.71
2022-08-28T15:20:12.734Z,28.78
2022-08-28T15:25:19.100Z,28.74
2022-08-28T15:30:24.574Z,29.61
2022-08-28T15:35:28.216Z,28.75
2022-08-28T15:40:50.860Z,28.55
2022-08-28T15:45:54.348Z,29.58
2022-08-28T15:50:58.061Z,29.02
2022-08-28T15:56:05.283Z,30.42
2022-08-28T16:01:09.330Z,29.45
2022-08-28T16:06:14.379Z,30.14
2022-08-28T16:11:20.599Z,28.35
2022-08-28T16:16:24.442Z,28.83
2022-08-28T16:21:31.685Z,28.28
2022-08-28T16:26:36.776Z,28.25
2022-08-28T16:31:40.371Z,27.36
2022-08-28T16:36:43.910Z,28.04
2022-08-28T16:41:50.215Z,27.15
2022-08-28T16:46:54.461Z,26.93
2022-08-28T16:51:57.926Z,26.93
2022-08-28T16:57:02.782Z,26.92
2022-08-28T17:02:06.379Z,27.62
2022-08-28T17:07:10.153Z,27.38
2022-08-28T17:12:15.326Z,27.23
2022-08-28T17:17:19.275Z,26.60
2022-08-28T17:22:34.558Z,26.89
2022-08-28T17:27:40.795Z,25.93
2022-08-28T17:32:44.874Z,25.94
2022-08-28T17:37:50.614Z,26.40
2022-08-28T17:42:56.750Z,25.17
2022-08-28T17:48:00.394Z,25.17
2022-08-28T17:53:03.935Z,25.58
2022-08-28T17:58:08.758Z,26.17
2022-08-28T18:03:12.226Z,24.99
2022-08-28T18:08:15.745Z,24.47
2022-08-28T18:13:20.582Z,24.58
2022-08-28T18:18:26.944Z,24.88
2022-08-28T18:23:40.531Z,24.47
2022-08-28T18:28:45.335Z,24.91
2022-08-28T18:33:48.937Z,23.89
2022-08-28T18:38:52.875Z,24.67
2022-08-28T18:43:57.754Z,23.80
2022-08-28T18:49:06.944Z,24.41
2022-08-28T18:54:10.722Z,25.00
2022-08-28T18:59:17.212Z,24.67
2022-08-28T19:04:20.995Z,23.88
2022-08-28T19:09:29.035Z,24.05
2022-08-28T19:14:37.822Z,24.32
2022-08-28T19:19:41.335Z,24.05
2022-08-28T19:24:45.168Z,23.80
2022-08-28T19:29:50.322Z,23.70
2022-08-28T19:34:53.836Z,23.81
2022-08-28T19:39:57.921Z,23.38
2022-08-28T19:45:03.016Z,22.99
2022-08-28T19:50:09.303Z,23.51
2022-08-28T19:55:18.174Z,22.17
2022-08-28T20:00:25.529Z,22.72
2022-08-28T20:05:29.074Z,23.17
2022-08-28T20:10:33.431Z,22.82
2022-08-28T20:15:38.683Z,22.84
2022-08-28T20:20:44.753Z,22.72
2022-08-28T20:25:48.457Z,22.48
2022-08-28T20:30:53.399Z,22.83
2022-08-28T20:36:01.443Z,22.64
2022-08-28T20:41:06.654Z,21.61
2022-08-28T20:46:12.342Z,22.27
2022-08-28T20:51:15.785Z,21.44
2022-08-28T20:56:19.314Z,22.22
2022-08-28T21:01:24.345Z,22.07
2022-08-28T21:06:27.847Z,22.42
2022-08-28T21:11:31.350Z,22.23
2022-08-28T21:16:36.675Z,21.82
2022-08-28T21:21:40.410Z,22.14
2022-08-28T21:26:45.302Z,22.23
2022-08-28T21:31:53.234Z,22.22
2022-08-28T21:36:57.911Z,22.16
2022-08-28T21:42:01.990Z,22.02
2022-08-28T21:47:07.075Z,22.08
2022-08-28T21:52:10.724Z,21.91
2022-08-28T21:57:14.348Z,21.80
2022-08-28T22:02:19.303Z,21.72
2022-08-28T22:07:22.863Z,21.65
2022-08-28T22:12:26.335Z,21.52
2022-08-28T22:17:31.352Z,21.44
2022-08-28T22:22:52.350Z,21.30
2022-08-28T22:27:56.371Z,21.24
2022-08-28T22:33:01.385Z,21.00
2022-08-28T22:38:04.912Z,21.04
2022-08-28T22:43:08.420Z,20.83
2022-08-28T22:48:14.403Z,20.92
2022-08-28T22:53:19.097Z,20.81
2022-08-28T22:58:22.546Z,20.61
2022-08-28T23:03:27.564Z,19.99
2022-08-28T23:08:34.012Z,20.55
2022-08-28T23:13:37.977Z,20.57
2022-08-28T23:19:06.710Z,20.45
2022-08-28T23:24:06.587Z,20.28
2022-08-28T23:29:10.195Z,20.41
2022-08-28T23:34:15.027Z,20.28
2022-08-28T23:39:19.461Z,20.26
2022-08-28T23:44:24.917Z,20.18
2022-08-28T23:49:31.236Z,19.99
2022-08-28T23:54:35.497Z,19.82
2022-08-28T23:59:38.994Z,20.00
